sensor_id;sensor_type;location;lat;lon;timestamp;noise_LAeq;noise_LA_min;noise_LA_max;noise_LA01;noise_LA95
74234;Laerm;62591;55.764;37.718;2023-10-31T00:00:43;43.65;37.85;55.25;;
74234;Laerm;62591;55.764;37.718;2023-10-31T00:03:12;43.07;38.40;54.63;;
74234;Laerm;62591;55.764;37.718;2023-10-31T00:05:44;43.03;38.29;53.25;;
74234;Laerm;62591;55.764;37.718;2023-10-31T00:08:14;44.93;37.36;52.68;;
74234;Laerm;62591;55.764;37.718;2023-10-31T00:10:43;43.24;38.22;53.32;;
74234;Laerm;62591;55.764;37.718;2023-10-31T00:13:13;44.08;38.56;54.27;;
74234;Laerm;62591;55.764;37.718;2023-10-31T00:15:51;42.68;37.31;54.21;;
74234;Laerm;62591;55.764;37.718;2023-10-31T00:18:22;45.36;38.14;54.92;;
74234;Laerm;62591;55.764;37.718;2023-10-31T00:20:53;42.72;37.28;54.82;;
74234;Laerm;62591;55.764;37.718;2023-10-31T00:23:23;44.37;37.52;53.96;;
74234;Laerm;62591;55.764;37.718;2023-10-31T00:25:52;44.18;37.57;58.48;;
74234;Laerm;62591;55.764;37.718;2023-10-31T00:28:20;42.09;37.03;52.48;;
74234;Laerm;62591;55.764;37.718;2023-10-31T00:30:49;41.84;37.60;53.04;;
74234;Laerm;62591;55.764;37.718;2023-10-31T00:33:18;42.76;37.16;53.21;;
74234;Laerm;62591;55.764;37.718;2023-10-31T00:35:48;45.71;37.50;58.38;;
74234;Laerm;62591;55.764;37.718;2023-10-31T00:38:16;42.25;37.31;51.44;;
74234;Laerm;62591;55.764;37.718;2023-10-31T00:40:46;42.09;36.74;57.59;;
74234;Laerm;62591;55.764;37.718;2023-10-31T00:43:15;41.50;36.75;57.20;;
74234;Laerm;62591;55.764;37.718;2023-10-31T00:45:46;43.43;37.44;52.17;;
74234;Laerm;62591;55.764;37.718;2023-10-31T00:48:15;41.78;36.86;57.59;;
74234;Laerm;62591;55.764;37.718;2023-10-31T00:50:44;42.28;36.30;58.23;;
74234;Laerm;62591;55.764;37.718;2023-10-31T00:53:13;44.04;37.22;55.82;;
74234;Laerm;62591;55.764;37.718;2023-10-31T00:55:43;42.91;39.24;55.32;;
74234;Laerm;62591;55.764;37.718;2023-10-31T00:58:14;41.70;37.68;56.92;;
74234;Laerm;62591;55.764;37.718;2023-10-31T01:00:43;39.89;35.55;52.41;;
74234;Laerm;62591;55.764;37.718;2023-10-31T01:03:12;42.36;36.45;54.08;;
74234;Laerm;62591;55.764;37.718;2023-10-31T01:05:41;41.93;36.55;53.10;;
74234;Laerm;62591;55.764;37.718;2023-10-31T01:08:10;44.24;38.59;55.17;;
74234;Laerm;62591;55.764;37.718;2023-10-31T01:10:39;46.26;39.59;54.23;;
74234;Laerm;62591;55.764;37.718;2023-10-31T01:13:08;43.94;37.87;53.98;;
74234;Laerm;62591;55.764;37.718;2023-10-31T01:15:40;44.91;38.41;52.88;;
74234;Laerm;62591;55.764;37.718;2023-10-31T01:18:08;46.35;38.17;54.92;;
74234;Laerm;62591;55.764;37.718;2023-10-31T01:20:37;45.78;38.88;54.23;;
74234;Laerm;62591;55.764;37.718;2023-10-31T01:23:06;42.86;37.64;53.49;;
74234;Laerm;62591;55.764;37.718;2023-10-31T01:25:36;41.42;36.86;52.70;;
74234;Laerm;62591;55.764;37.718;2023-10-31T01:28:05;42.36;36.71;52.89;;
74234;Laerm;62591;55.764;37.718;2023-10-31T01:30:33;43.65;37.90;52.18;;
74234;Laerm;62591;55.764;37.718;2023-10-31T01:33:07;42.44;37.21;52.89;;
74234;Laerm;62591;55.764;37.718;2023-10-31T01:35:35;41.42;37.06;56.69;;
74234;Laerm;62591;55.764;37.718;2023-10-31T01:38:04;42.37;36.31;54.20;;
74234;Laerm;62591;55.764;37.718;2023-10-31T01:40:33;42.30;36.94;54.70;;
74234;Laerm;62591;55.764;37.718;2023-10-31T01:43:02;42.73;37.15;54.12;;
74234;Laerm;62591;55.764;37.718;2023-10-31T01:45:31;44.72;37.77;55.96;;
74234;Laerm;62591;55.764;37.718;2023-10-31T01:48:02;42.26;37.64;53.04;;
74234;Laerm;62591;55.764;37.718;2023-10-31T01:50:33;45.37;37.85;53.11;;
74234;Laerm;62591;55.764;37.718;2023-10-31T01:53:02;42.65;37.89;54.79;;
74234;Laerm;62591;55.764;37.718;2023-10-31T01:55:31;43.84;38.37;57.29;;
74234;Laerm;62591;55.764;37.718;2023-10-31T01:58:02;42.97;36.67;57.36;;
74234;Laerm;62591;55.764;37.718;2023-10-31T02:00:30;45.90;36.54;55.42;;
74234;Laerm;62591;55.764;37.718;2023-10-31T02:02:59;43.00;36.71;51.79;;
74234;Laerm;62591;55.764;37.718;2023-10-31T02:05:28;42.67;37.10;61.20;;
74234;Laerm;62591;55.764;37.718;2023-10-31T02:08:01;42.35;36.67;58.85;;
74234;Laerm;62591;55.764;37.718;2023-10-31T02:10:30;46.80;38.04;54.01;;
74234;Laerm;62591;55.764;37.718;2023-10-31T02:12:58;43.05;37.32;54.11;;
74234;Laerm;62591;55.764;37.718;2023-10-31T02:15:27;41.35;37.31;54.15;;
74234;Laerm;62591;55.764;37.718;2023-10-31T02:17:56;42.16;37.32;52.36;;
74234;Laerm;62591;55.764;37.718;2023-10-31T02:20:27;48.82;38.02;61.85;;
74234;Laerm;62591;55.764;37.718;2023-10-31T02:22:57;41.85;37.48;55.93;;
74234;Laerm;62591;55.764;37.718;2023-10-31T02:25:26;43.06;37.52;54.67;;
74234;Laerm;62591;55.764;37.718;2023-10-31T02:27:54;41.57;37.13;51.92;;
74234;Laerm;62591;55.764;37.718;2023-10-31T02:30:23;45.63;38.10;59.96;;
74234;Laerm;62591;55.764;37.718;2023-10-31T02:32:52;44.78;39.87;52.94;;
74234;Laerm;62591;55.764;37.718;2023-10-31T02:35:22;46.36;39.70;55.91;;
74234;Laerm;62591;55.764;37.718;2023-10-31T02:37:50;45.92;38.05;61.58;;
74234;Laerm;62591;55.764;37.718;2023-10-31T02:40:20;43.57;36.65;56.24;;
74234;Laerm;62591;55.764;37.718;2023-10-31T02:42:49;43.06;37.23;52.42;;
74234;Laerm;62591;55.764;37.718;2023-10-31T02:45:18;45.05;37.61;55.66;;
74234;Laerm;62591;55.764;37.718;2023-10-31T02:47:47;43.35;37.01;53.24;;
74234;Laerm;62591;55.764;37.718;2023-10-31T02:50:15;43.47;37.12;55.40;;
74234;Laerm;62591;55.764;37.718;2023-10-31T02:52:45;45.98;38.03;56.27;;
74234;Laerm;62591;55.764;37.718;2023-10-31T02:55:14;43.38;37.80;50.11;;
74234;Laerm;62591;55.764;37.718;2023-10-31T02:57:45;44.63;38.48;55.00;;
74234;Laerm;62591;55.764;37.718;2023-10-31T03:00:15;45.93;38.75;54.56;;
74234;Laerm;62591;55.764;37.718;2023-10-31T03:02:43;44.33;38.35;53.90;;
74234;Laerm;62591;55.764;37.718;2023-10-31T03:05:13;47.26;39.52;62.45;;
74234;Laerm;62591;55.764;37.718;2023-10-31T03:07:42;44.55;39.26;54.19;;
74234;Laerm;62591;55.764;37.718;2023-10-31T03:10:12;46.91;39.93;54.46;;
74234;Laerm;62591;55.764;37.718;2023-10-31T03:12:41;49.30;40.14;62.44;;
74234;Laerm;62591;55.764;37.718;2023-10-31T03:15:12;47.20;39.45;57.93;;
74234;Laerm;62591;55.764;37.718;2023-10-31T03:17:41;49.69;40.70;62.22;;
74234;Laerm;62591;55.764;37.718;2023-10-31T03:20:11;48.43;40.63;58.67;;
74234;Laerm;62591;55.764;37.718;2023-10-31T03:22:39;46.97;39.82;58.11;;
74234;Laerm;62591;55.764;37.718;2023-10-31T03:25:11;46.89;39.54;55.46;;
74234;Laerm;62591;55.764;37.718;2023-10-31T03:27:39;48.54;40.59;57.80;;
74234;Laerm;62591;55.764;37.718;2023-10-31T03:30:09;48.64;40.13;57.10;;
74234;Laerm;62591;55.764;37.718;2023-10-31T03:32:41;47.23;38.97;57.90;;
74234;Laerm;62591;55.764;37.718;2023-10-31T03:35:10;46.38;39.61;54.35;;
74234;Laerm;62591;55.764;37.718;2023-10-31T03:37:39;47.68;38.64;55.19;;
74234;Laerm;62591;55.764;37.718;2023-10-31T03:40:09;48.03;40.84;55.47;;
74234;Laerm;62591;55.764;37.718;2023-10-31T03:42:39;48.14;39.61;55.84;;
74234;Laerm;62591;55.764;37.718;2023-10-31T03:45:09;48.73;39.31;65.63;;
74234;Laerm;62591;55.764;37.718;2023-10-31T03:47:40;48.97;41.15;57.03;;
74234;Laerm;62591;55.764;37.718;2023-10-31T03:50:11;48.53;39.45;54.95;;
74234;Laerm;62591;55.764;37.718;2023-10-31T03:52:40;47.74;40.99;56.81;;
74234;Laerm;62591;55.764;37.718;2023-10-31T03:55:09;49.59;40.41;55.94;;
74234;Laerm;62591;55.764;37.718;2023-10-31T03:57:39;48.70;39.67;58.01;;
74234;Laerm;62591;55.764;37.718;2023-10-31T04:00:08;48.86;40.31;58.45;;
74234;Laerm;62591;55.764;37.718;2023-10-31T04:02:43;49.48;41.07;56.21;;
74234;Laerm;62591;55.764;37.718;2023-10-31T04:05:12;48.57;39.89;56.79;;
74234;Laerm;62591;55.764;37.718;2023-10-31T04:07:41;51.49;42.53;62.65;;
74234;Laerm;62591;55.764;37.718;2023-10-31T04:10:10;47.49;40.28;57.54;;
74234;Laerm;62591;55.764;37.718;2023-10-31T04:12:39;49.80;40.78;59.14;;
74234;Laerm;62591;55.764;37.718;2023-10-31T04:15:09;49.60;42.69;66.45;;
74234;Laerm;62591;55.764;37.718;2023-10-31T04:17:38;50.33;43.09;58.72;;
74234;Laerm;62591;55.764;37.718;2023-10-31T04:20:09;49.16;41.61;57.14;;
74234;Laerm;62591;55.764;37.718;2023-10-31T04:22:37;51.55;42.30;57.93;;
74234;Laerm;62591;55.764;37.718;2023-10-31T04:25:08;50.41;42.53;61.19;;
74234;Laerm;62591;55.764;37.718;2023-10-31T04:27:37;48.79;41.13;59.64;;
74234;Laerm;62591;55.764;37.718;2023-10-31T04:30:07;49.61;42.15;56.14;;
74234;Laerm;62591;55.764;37.718;2023-10-31T04:32:40;50.66;43.41;57.80;;
74234;Laerm;62591;55.764;37.718;2023-10-31T04:35:11;50.46;42.84;58.86;;
74234;Laerm;62591;55.764;37.718;2023-10-31T04:37:40;49.95;42.39;62.44;;
74234;Laerm;62591;55.764;37.718;2023-10-31T04:40:10;51.79;43.44;57.34;;
74234;Laerm;62591;55.764;37.718;2023-10-31T04:42:41;50.57;44.70;61.93;;
74234;Laerm;62591;55.764;37.718;2023-10-31T04:45:10;50.70;43.83;60.70;;
74234;Laerm;62591;55.764;37.718;2023-10-31T04:47:40;49.63;42.54;58.77;;
74234;Laerm;62591;55.764;37.718;2023-10-31T04:50:13;49.57;40.70;61.94;;
74234;Laerm;62591;55.764;37.718;2023-10-31T04:52:42;50.55;43.56;56.98;;
74234;Laerm;62591;55.764;37.718;2023-10-31T04:55:11;49.99;43.84;63.55;;
74234;Laerm;62591;55.764;37.718;2023-10-31T04:57:45;50.73;42.97;65.15;;
74234;Laerm;62591;55.764;37.718;2023-10-31T05:00:14;49.49;41.44;60.79;;
74234;Laerm;62591;55.764;37.718;2023-10-31T05:02:44;51.63;43.94;65.04;;
74234;Laerm;62591;55.764;37.718;2023-10-31T05:05:14;50.17;40.71;57.80;;
74234;Laerm;62591;55.764;37.718;2023-10-31T05:07:43;49.97;40.93;61.87;;
74234;Laerm;62591;55.764;37.718;2023-10-31T05:10:12;51.84;45.53;59.45;;
74234;Laerm;62591;55.764;37.718;2023-10-31T05:12:41;51.80;44.40;61.80;;
74234;Laerm;62591;55.764;37.718;2023-10-31T05:15:10;50.61;42.79;57.72;;
74234;Laerm;62591;55.764;37.718;2023-10-31T05:17:38;50.18;41.93;64.14;;
74234;Laerm;62591;55.764;37.718;2023-10-31T05:20:08;50.25;42.36;59.76;;
74234;Laerm;62591;55.764;37.718;2023-10-31T05:22:40;51.13;44.73;64.71;;
74234;Laerm;62591;55.764;37.718;2023-10-31T05:25:09;50.38;40.54;58.05;;
74234;Laerm;62591;55.764;37.718;2023-10-31T05:27:40;51.19;43.63;58.18;;
74234;Laerm;62591;55.764;37.718;2023-10-31T05:30:10;53.02;41.66;66.75;;
74234;Laerm;62591;55.764;37.718;2023-10-31T05:32:39;49.85;41.96;61.15;;
74234;Laerm;62591;55.764;37.718;2023-10-31T05:35:08;50.22;43.11;57.90;;
74234;Laerm;62591;55.764;37.718;2023-10-31T05:37:38;53.36;46.67;61.53;;
74234;Laerm;62591;55.764;37.718;2023-10-31T05:40:08;52.08;45.28;64.81;;
74234;Laerm;62591;55.764;37.718;2023-10-31T05:42:36;51.60;43.14;64.83;;
74234;Laerm;62591;55.764;37.718;2023-10-31T05:45:06;52.85;45.04;62.34;;
74234;Laerm;62591;55.764;37.718;2023-10-31T05:47:34;51.79;44.90;63.84;;
74234;Laerm;62591;55.764;37.718;2023-10-31T05:50:07;51.43;45.03;60.70;;
74234;Laerm;62591;55.764;37.718;2023-10-31T05:52:40;51.29;45.02;60.85;;
74234;Laerm;62591;55.764;37.718;2023-10-31T05:55:09;50.69;44.71;56.82;;
74234;Laerm;62591;55.764;37.718;2023-10-31T05:57:39;52.11;44.86;67.43;;
74234;Laerm;62591;55.764;37.718;2023-10-31T06:00:08;51.51;43.94;58.38;;
74234;Laerm;62591;55.764;37.718;2023-10-31T06:02:41;50.62;42.06;60.26;;
74234;Laerm;62591;55.764;37.718;2023-10-31T06:05:12;49.81;41.75;61.08;;
74234;Laerm;62591;55.764;37.718;2023-10-31T06:07:42;50.05;40.90;58.98;;
74234;Laerm;62591;55.764;37.718;2023-10-31T06:10:11;50.96;41.32;60.30;;
74234;Laerm;62591;55.764;37.718;2023-10-31T06:12:40;49.72;41.28;60.56;;
74234;Laerm;62591;55.764;37.718;2023-10-31T06:15:10;49.61;39.83;57.86;;
74234;Laerm;62591;55.764;37.718;2023-10-31T06:17:42;48.63;40.07;57.55;;
74234;Laerm;62591;55.764;37.718;2023-10-31T06:20:11;49.28;41.67;61.53;;
74234;Laerm;62591;55.764;37.718;2023-10-31T06:22:44;50.96;43.38;57.36;;
74234;Laerm;62591;55.764;37.718;2023-10-31T06:25:13;50.13;44.46;58.09;;
74234;Laerm;62591;55.764;37.718;2023-10-31T06:27:42;50.27;45.34;58.79;;
74234;Laerm;62591;55.764;37.718;2023-10-31T06:30:12;50.33;42.93;56.23;;
74234;Laerm;62591;55.764;37.718;2023-10-31T06:32:53;49.53;41.98;63.46;;
74234;Laerm;62591;55.764;37.718;2023-10-31T06:35:22;49.29;43.31;68.57;;
74234;Laerm;62591;55.764;37.718;2023-10-31T06:37:54;50.03;43.19;67.22;;
74234;Laerm;62591;55.764;37.718;2023-10-31T06:40:24;49.44;43.55;65.19;;
74234;Laerm;62591;55.764;37.718;2023-10-31T06:42:53;49.04;42.92;71.57;;
74234;Laerm;62591;55.764;37.718;2023-10-31T06:45:22;50.89;42.43;62.05;;
74234;Laerm;62591;55.764;37.718;2023-10-31T06:47:51;51.17;41.96;62.04;;
74234;Laerm;62591;55.764;37.718;2023-10-31T06:50:22;51.43;41.81;63.07;;
74234;Laerm;62591;55.764;37.718;2023-10-31T06:52:50;52.32;42.57;73.34;;
74234;Laerm;62591;55.764;37.718;2023-10-31T06:55:20;50.87;42.11;61.47;;
74234;Laerm;62591;55.764;37.718;2023-10-31T06:57:50;52.10;44.51;63.23;;
74234;Laerm;62591;55.764;37.718;2023-10-31T07:00:19;50.15;42.51;65.58;;
74234;Laerm;62591;55.764;37.718;2023-10-31T07:02:48;51.22;42.66;62.75;;
74234;Laerm;62591;55.764;37.718;2023-10-31T07:05:17;49.07;42.45;56.63;;
74234;Laerm;62591;55.764;37.718;2023-10-31T07:07:48;50.35;40.07;58.35;;
74234;Laerm;62591;55.764;37.718;2023-10-31T07:10:17;49.77;42.86;59.56;;
74234;Laerm;62591;55.764;37.718;2023-10-31T07:12:46;50.00;41.98;57.81;;
74234;Laerm;62591;55.764;37.718;2023-10-31T07:15:16;49.18;41.93;56.86;;
74234;Laerm;62591;55.764;37.718;2023-10-31T07:17:45;49.05;42.78;59.82;;
74234;Laerm;62591;55.764;37.718;2023-10-31T07:20:16;49.94;43.91;66.11;;
74234;Laerm;62591;55.764;37.718;2023-10-31T07:22:45;51.18;44.48;65.32;;
74234;Laerm;62591;55.764;37.718;2023-10-31T07:25:18;51.55;44.51;57.80;;
74234;Laerm;62591;55.764;37.718;2023-10-31T07:27:52;50.08;42.97;63.93;;
74234;Laerm;62591;55.764;37.718;2023-10-31T07:30:20;50.09;43.38;57.72;;
74234;Laerm;62591;55.764;37.718;2023-10-31T07:32:49;50.92;42.32;59.09;;
74234;Laerm;62591;55.764;37.718;2023-10-31T07:35:18;48.15;42.03;54.29;;
74234;Laerm;62591;55.764;37.718;2023-10-31T07:37:47;52.18;43.09;69.71;;
74234;Laerm;62591;55.764;37.718;2023-10-31T07:40:16;51.63;41.89;62.90;;
74234;Laerm;62591;55.764;37.718;2023-10-31T07:42:45;49.26;43.00;56.84;;
74234;Laerm;62591;55.764;37.718;2023-10-31T07:45:15;48.82;41.91;59.46;;
74234;Laerm;62591;55.764;37.718;2023-10-31T07:47:47;50.10;42.68;62.55;;
74234;Laerm;62591;55.764;37.718;2023-10-31T07:50:15;63.63;45.30;85.92;;
74234;Laerm;62591;55.764;37.718;2023-10-31T07:52:44;51.55;44.11;64.91;;
74234;Laerm;62591;55.764;37.718;2023-10-31T07:55:14;52.98;44.47;66.82;;
74234;Laerm;62591;55.764;37.718;2023-10-31T07:57:42;51.77;42.50;68.42;;
74234;Laerm;62591;55.764;37.718;2023-10-31T08:00:12;55.45;44.21;71.46;;
74234;Laerm;62591;55.764;37.718;2023-10-31T08:02:42;50.77;40.98;63.65;;
74234;Laerm;62591;55.764;37.718;2023-10-31T08:05:11;51.50;43.54;63.22;;
74234;Laerm;62591;55.764;37.718;2023-10-31T08:07:40;51.58;43.06;64.83;;
74234;Laerm;62591;55.764;37.718;2023-10-31T08:10:09;51.93;44.51;70.76;;
74234;Laerm;62591;55.764;37.718;2023-10-31T08:12:38;53.00;43.58;70.11;;
74234;Laerm;62591;55.764;37.718;2023-10-31T08:15:07;50.13;42.44;60.52;;
74234;Laerm;62591;55.764;37.718;2023-10-31T08:17:36;50.39;44.18;61.15;;
74234;Laerm;62591;55.764;37.718;2023-10-31T08:20:11;51.89;43.71;63.61;;
74234;Laerm;62591;55.764;37.718;2023-10-31T08:22:42;50.42;43.14;63.23;;
74234;Laerm;62591;55.764;37.718;2023-10-31T08:25:11;51.69;43.94;66.86;;
74234;Laerm;62591;55.764;37.718;2023-10-31T08:27:40;51.32;43.83;64.43;;
74234;Laerm;62591;55.764;37.718;2023-10-31T08:30:09;50.40;43.13;64.77;;
74234;Laerm;62591;55.764;37.718;2023-10-31T08:32:42;52.52;43.27;71.05;;
74234;Laerm;62591;55.764;37.718;2023-10-31T08:35:12;53.09;43.99;68.66;;
74234;Laerm;62591;55.764;37.718;2023-10-31T08:37:41;51.94;44.04;67.17;;
74234;Laerm;62591;55.764;37.718;2023-10-31T08:40:10;51.65;43.11;69.66;;
74234;Laerm;62591;55.764;37.718;2023-10-31T08:42:38;55.03;44.21;83.65;;
74234;Laerm;62591;55.764;37.718;2023-10-31T08:45:09;50.92;43.45;68.68;;
74234;Laerm;62591;55.764;37.718;2023-10-31T08:47:37;50.12;41.34;62.96;;
74234;Laerm;62591;55.764;37.718;2023-10-31T08:50:07;50.61;41.99;60.63;;
74234;Laerm;62591;55.764;37.718;2023-10-31T08:52:48;49.86;43.22;60.54;;
74234;Laerm;62591;55.764;37.718;2023-10-31T08:55:18;49.87;43.57;66.85;;
74234;Laerm;62591;55.764;37.718;2023-10-31T08:57:47;49.54;42.92;73.78;;
74234;Laerm;62591;55.764;37.718;2023-10-31T09:00:16;48.91;41.75;57.20;;
74234;Laerm;62591;55.764;37.718;2023-10-31T09:02:46;46.76;39.70;57.27;;
74234;Laerm;62591;55.764;37.718;2023-10-31T09:05:14;47.98;39.77;61.10;;
74234;Laerm;62591;55.764;37.718;2023-10-31T09:07:48;50.30;42.65;65.05;;
74234;Laerm;62591;55.764;37.718;2023-10-31T09:10:17;47.25;42.28;55.67;;
74234;Laerm;62591;55.764;37.718;2023-10-31T09:12:48;49.71;43.59;67.34;;
74234;Laerm;62591;55.764;37.718;2023-10-31T09:15:16;47.77;42.13;54.79;;
74234;Laerm;62591;55.764;37.718;2023-10-31T09:17:46;49.52;42.32;56.21;;
74234;Laerm;62591;55.764;37.718;2023-10-31T09:20:20;48.85;40.33;67.23;;
74234;Laerm;62591;55.764;37.718;2023-10-31T09:22:50;49.58;41.77;66.22;;
74234;Laerm;62591;55.764;37.718;2023-10-31T09:25:19;48.24;39.42;68.39;;
74234;Laerm;62591;55.764;37.718;2023-10-31T09:27:48;46.41;39.15;54.63;;
74234;Laerm;62591;55.764;37.718;2023-10-31T09:30:17;47.10;38.93;52.94;;
74234;Laerm;62591;55.764;37.718;2023-10-31T09:32:45;46.63;40.20;67.84;;
74234;Laerm;62591;55.764;37.718;2023-10-31T09:35:14;50.11;42.49;66.02;;
74234;Laerm;62591;55.764;37.718;2023-10-31T09:37:44;50.60;43.30;61.15;;
74234;Laerm;62591;55.764;37.718;2023-10-31T09:40:17;48.90;40.02;71.31;;
74234;Laerm;62591;55.764;37.718;2023-10-31T09:42:47;48.79;40.72;62.71;;
74234;Laerm;62591;55.764;37.718;2023-10-31T09:45:17;49.89;41.30;59.54;;
74234;Laerm;62591;55.764;37.718;2023-10-31T09:47:46;48.64;40.41;57.39;;
74234;Laerm;62591;55.764;37.718;2023-10-31T09:50:14;50.42;40.88;63.43;;
74234;Laerm;62591;55.764;37.718;2023-10-31T09:52:44;48.50;40.23;62.03;;
74234;Laerm;62591;55.764;37.718;2023-10-31T09:55:14;46.32;39.77;53.72;;
74234;Laerm;62591;55.764;37.718;2023-10-31T09:57:44;49.19;40.52;60.13;;
74234;Laerm;62591;55.764;37.718;2023-10-31T10:00:13;48.08;40.99;59.86;;
74234;Laerm;62591;55.764;37.718;2023-10-31T10:02:42;47.40;39.13;58.04;;
74234;Laerm;62591;55.764;37.718;2023-10-31T10:05:14;48.34;40.71;60.69;;
74234;Laerm;62591;55.764;37.718;2023-10-31T10:07:44;48.01;39.30;57.38;;
74234;Laerm;62591;55.764;37.718;2023-10-31T10:10:13;47.33;41.42;54.60;;
74234;Laerm;62591;55.764;37.718;2023-10-31T10:12:46;49.18;40.89;63.26;;
74234;Laerm;62591;55.764;37.718;2023-10-31T10:15:15;46.78;40.10;55.63;;
74234;Laerm;62591;55.764;37.718;2023-10-31T10:17:49;48.25;41.73;63.13;;
74234;Laerm;62591;55.764;37.718;2023-10-31T10:20:19;49.53;42.02;58.21;;
74234;Laerm;62591;55.764;37.718;2023-10-31T10:22:48;51.56;43.09;70.73;;
74234;Laerm;62591;55.764;37.718;2023-10-31T10:25:18;49.44;39.67;65.19;;
74234;Laerm;62591;55.764;37.718;2023-10-31T10:27:48;49.04;40.85;60.28;;
74234;Laerm;62591;55.764;37.718;2023-10-31T10:30:17;49.84;41.86;67.83;;
74234;Laerm;62591;55.764;37.718;2023-10-31T10:32:49;47.71;40.43;54.29;;
74234;Laerm;62591;55.764;37.718;2023-10-31T10:35:18;48.97;42.69;64.18;;
74234;Laerm;62591;55.764;37.718;2023-10-31T10:37:48;49.94;42.20;63.82;;
74234;Laerm;62591;55.764;37.718;2023-10-31T10:40:17;48.01;40.62;64.64;;
74234;Laerm;62591;55.764;37.718;2023-10-31T10:42:48;49.32;41.56;66.37;;
74234;Laerm;62591;55.764;37.718;2023-10-31T10:45:24;49.52;41.77;63.89;;
74234;Laerm;62591;55.764;37.718;2023-10-31T10:47:58;47.99;39.66;60.35;;
74234;Laerm;62591;55.764;37.718;2023-10-31T10:50:30;49.91;43.57;58.94;;
74234;Laerm;62591;55.764;37.718;2023-10-31T10:53:09;50.76;42.17;59.96;;
74234;Laerm;62591;55.764;37.718;2023-10-31T10:55:43;47.95;40.42;57.84;;
74234;Laerm;62591;55.764;37.718;2023-10-31T10:58:21;49.19;40.63;59.39;;
74234;Laerm;62591;55.764;37.718;2023-10-31T11:00:51;52.58;39.04;65.94;;
74234;Laerm;62591;55.764;37.718;2023-10-31T11:03:22;49.43;41.03;65.97;;
74234;Laerm;62591;55.764;37.718;2023-10-31T11:05:52;50.64;41.00;65.50;;
74234;Laerm;62591;55.764;37.718;2023-10-31T11:08:23;49.54;41.21;73.54;;
74234;Laerm;62591;55.764;37.718;2023-10-31T11:10:52;48.06;40.28;55.03;;
74234;Laerm;62591;55.764;37.718;2023-10-31T11:13:25;47.35;39.41;58.22;;
74234;Laerm;62591;55.764;37.718;2023-10-31T11:15:59;48.78;40.52;57.98;;
74234;Laerm;62591;55.764;37.718;2023-10-31T11:18:33;50.87;39.81;69.11;;
74234;Laerm;62591;55.764;37.718;2023-10-31T11:21:04;47.55;40.75;55.92;;
74234;Laerm;62591;55.764;37.718;2023-10-31T11:23:33;48.39;41.34;60.24;;
74234;Laerm;62591;55.764;37.718;2023-10-31T11:26:02;49.89;42.52;64.68;;
74234;Laerm;62591;55.764;37.718;2023-10-31T11:28:32;47.96;40.08;63.09;;
74234;Laerm;62591;55.764;37.718;2023-10-31T11:31:01;51.21;42.69;64.91;;
74234;Laerm;62591;55.764;37.718;2023-10-31T11:33:30;48.66;43.53;55.13;;
74234;Laerm;62591;55.764;37.718;2023-10-31T11:36:01;50.26;43.45;63.56;;
74234;Laerm;62591;55.764;37.718;2023-10-31T11:38:37;52.10;44.64;62.17;;
74234;Laerm;62591;55.764;37.718;2023-10-31T11:41:06;50.53;43.78;68.42;;
74234;Laerm;62591;55.764;37.718;2023-10-31T11:43:52;49.34;44.31;59.26;;
74234;Laerm;62591;55.764;37.718;2023-10-31T11:46:22;49.16;43.71;55.41;;
74234;Laerm;62591;55.764;37.718;2023-10-31T11:48:54;50.89;43.48;62.98;;
74234;Laerm;62591;55.764;37.718;2023-10-31T11:51:25;50.01;44.99;63.04;;
74234;Laerm;62591;55.764;37.718;2023-10-31T11:53:54;50.38;44.38;59.78;;
74234;Laerm;62591;55.764;37.718;2023-10-31T11:56:24;50.90;44.18;63.37;;
74234;Laerm;62591;55.764;37.718;2023-10-31T11:59:01;49.92;44.59;58.12;;
74234;Laerm;62591;55.764;37.718;2023-10-31T12:01:32;50.26;43.76;67.06;;
74234;Laerm;62591;55.764;37.718;2023-10-31T12:04:03;49.80;41.73;58.25;;
74234;Laerm;62591;55.764;37.718;2023-10-31T12:06:38;48.60;43.27;59.37;;
74234;Laerm;62591;55.764;37.718;2023-10-31T12:09:07;49.22;43.37;58.06;;
74234;Laerm;62591;55.764;37.718;2023-10-31T12:11:44;49.56;45.15;61.83;;
74234;Laerm;62591;55.764;37.718;2023-10-31T12:14:18;49.67;44.29;56.55;;
74234;Laerm;62591;55.764;37.718;2023-10-31T12:16:48;48.81;43.38;58.17;;
74234;Laerm;62591;55.764;37.718;2023-10-31T12:19:20;48.72;42.90;58.60;;
74234;Laerm;62591;55.764;37.718;2023-10-31T12:21:49;53.63;43.76;66.71;;
74234;Laerm;62591;55.764;37.718;2023-10-31T12:24:18;51.17;44.55;60.68;;
74234;Laerm;62591;55.764;37.718;2023-10-31T12:26:47;49.34;43.95;57.79;;
74234;Laerm;62591;55.764;37.718;2023-10-31T12:29:18;51.56;44.57;68.98;;
74234;Laerm;62591;55.764;37.718;2023-10-31T12:31:48;53.28;44.69;63.89;;
74234;Laerm;62591;55.764;37.718;2023-10-31T12:34:20;51.89;43.89;63.20;;
74234;Laerm;62591;55.764;37.718;2023-10-31T12:36:51;50.45;44.62;66.48;;
74234;Laerm;62591;55.764;37.718;2023-10-31T12:39:21;49.50;43.94;63.08;;
74234;Laerm;62591;55.764;37.718;2023-10-31T12:41:51;50.71;46.68;60.21;;
74234;Laerm;62591;55.764;37.718;2023-10-31T12:44:23;51.16;46.71;64.42;;
74234;Laerm;62591;55.764;37.718;2023-10-31T12:46:55;50.78;45.53;61.41;;
74234;Laerm;62591;55.764;37.718;2023-10-31T12:49:24;50.34;45.64;61.99;;
74234;Laerm;62591;55.764;37.718;2023-10-31T12:51:57;51.01;45.34;66.78;;
74234;Laerm;62591;55.764;37.718;2023-10-31T12:54:29;51.49;45.11;64.43;;
74234;Laerm;62591;55.764;37.718;2023-10-31T12:56:59;52.60;42.56;65.14;;
74234;Laerm;62591;55.764;37.718;2023-10-31T12:59:30;49.87;44.01;64.50;;
74234;Laerm;62591;55.764;37.718;2023-10-31T13:02:00;51.16;45.57;58.34;;
